createdAt,value
2022-11-01T00:01:12.406Z,7.10
2022-11-01T00:03:38.823Z,7.80
2022-11-01T00:06:05.393Z,7.97
2022-11-01T00:08:31.812Z,6.70
2022-11-01T00:11:10.343Z,8.33
2022-11-01T00:13:36.631Z,7.67
2022-11-01T00:16:03.109Z,7.67
2022-11-01T00:18:29.624Z,8.10
2022-11-01T00:20:56.175Z,7.67
2022-11-01T00:23:22.468Z,7.47
2022-11-01T00:25:48.903Z,7.80
2022-11-01T00:28:15.289Z,7.27
2022-11-01T00:30:41.971Z,7.30
2022-11-01T00:33:08.513Z,6.80
2022-11-01T00:35:38.492Z,7.73
2022-11-01T00:38:06.077Z,7.53
2022-11-01T00:40:32.906Z,7.97
2022-11-01T00:42:59.407Z,7.20
2022-11-01T00:45:25.707Z,6.73
2022-11-01T00:47:52.038Z,8.07
2022-11-01T00:50:18.400Z,7.70
2022-11-01T00:52:44.680Z,7.87
2022-11-01T00:55:11.115Z,7.90
2022-11-01T00:57:37.441Z,7.43
2022-11-01T01:00:04.929Z,7.80
2022-11-01T01:02:31.307Z,7.53
2022-11-01T01:04:57.648Z,7.63
2022-11-01T01:07:23.969Z,7.73
2022-11-01T01:09:50.323Z,7.40
2022-11-01T01:12:16.668Z,7.70
2022-11-01T01:14:43.042Z,8.40
2022-11-01T01:17:09.443Z,7.50
2022-11-01T01:19:35.760Z,7.60
2022-11-01T01:22:02.829Z,7.60
2022-11-01T01:24:29.271Z,8.93
2022-11-01T01:26:55.584Z,7.50
2022-11-01T01:29:22.113Z,7.37
2022-11-01T01:31:50.474Z,7.53
2022-11-01T01:34:17.314Z,7.63
2022-11-01T01:36:44.585Z,7.23
2022-11-01T01:39:11.193Z,7.60
2022-11-01T01:41:55.682Z,7.37
2022-11-01T01:44:53.324Z,7.87
2022-11-01T01:47:32.970Z,7.93
2022-11-01T01:50:10.929Z,7.80
2022-11-01T01:52:47.375Z,7.20
2022-11-01T01:55:17.683Z,7.63
2022-11-01T01:57:44.612Z,7.23
2022-11-01T02:00:11.639Z,8.00
2022-11-01T02:02:40.650Z,7.80
2022-11-01T02:05:13.102Z,7.30
2022-11-01T02:07:39.400Z,7.13
2022-11-01T02:10:06.466Z,7.47
2022-11-01T02:12:36.234Z,6.90
2022-11-01T02:15:05.347Z,7.60
2022-11-01T02:17:46.983Z,7.23
2022-11-01T02:20:37.121Z,8.03
2022-11-01T02:23:25.347Z,7.00
2022-11-01T02:26:07.020Z,7.07
2022-11-01T02:28:49.201Z,7.87
2022-11-01T02:31:30.527Z,6.93
2022-11-01T02:34:01.563Z,7.07
2022-11-01T02:36:36.520Z,6.40
2022-11-01T02:39:20.674Z,7.10
2022-11-01T02:41:57.319Z,7.33
2022-11-01T02:44:27.602Z,7.83
2022-11-01T02:47:01.812Z,6.73
2022-11-01T02:49:33.531Z,7.00
2022-11-01T02:52:01.484Z,7.20
2022-11-01T02:54:33.327Z,7.03
2022-11-01T02:57:28.736Z,6.63
2022-11-01T03:00:03.277Z,7.60
2022-11-01T03:02:42.059Z,7.00
2022-11-01T03:05:27.240Z,7.10
2022-11-01T03:08:18.248Z,6.90
2022-11-01T03:11:02.861Z,7.13
2022-11-01T03:14:28.237Z,6.93
2022-11-01T03:17:06.527Z,6.73
2022-11-01T03:19:43.435Z,6.20
2022-11-01T03:22:15.404Z,6.93
2022-11-01T03:24:47.796Z,7.33
2022-11-01T03:27:23.303Z,7.03
2022-11-01T03:29:57.238Z,7.00
2022-11-01T03:32:32.070Z,6.33
2022-11-01T03:35:01.668Z,6.63
2022-11-01T03:37:30.560Z,6.20
2022-11-01T03:40:02.657Z,6.43
2022-11-01T03:42:30.099Z,6.90
2022-11-01T03:45:03.184Z,6.60
2022-11-01T03:47:30.035Z,6.67
2022-11-01T03:50:12.753Z,6.63
2022-11-01T03:52:39.127Z,6.50
2022-11-01T03:55:18.003Z,7.00
2022-11-01T03:57:48.045Z,6.33
2022-11-01T04:00:17.554Z,6.60
2022-11-01T04:02:43.897Z,6.93
2022-11-01T04:05:11.397Z,6.93
2022-11-01T04:07:38.744Z,6.83
2022-11-01T04:10:05.801Z,6.50
2022-11-01T04:12:32.166Z,6.30
2022-11-01T04:15:17.150Z,6.90
2022-11-01T04:18:02.053Z,6.60
2022-11-01T04:20:34.004Z,5.67
2022-11-01T04:23:06.229Z,6.50
2022-11-01T04:25:34.351Z,6.33
2022-11-01T04:28:00.755Z,6.40
2022-11-01T04:30:29.460Z,6.77
2022-11-01T04:32:56.180Z,7.10
2022-11-01T04:35:23.236Z,6.20
2022-11-01T04:37:55.903Z,6.40
2022-11-01T04:40:22.218Z,6.60
2022-11-01T04:42:48.656Z,6.17
2022-11-01T04:45:15.182Z,6.20
2022-11-01T04:47:52.072Z,6.20
2022-11-01T04:50:20.367Z,5.77
2022-11-01T04:52:47.742Z,6.03
2022-11-01T04:55:14.433Z,5.90
2022-11-01T04:57:41.933Z,6.10
2022-11-01T05:00:11.188Z,6.87
2022-11-01T05:02:38.636Z,6.90
2022-11-01T05:05:07.101Z,5.83
2022-11-01T05:07:33.691Z,5.90
2022-11-01T05:10:00.175Z,5.63
2022-11-01T05:12:27.222Z,6.07
2022-11-01T05:14:56.729Z,6.03
2022-11-01T05:17:23.462Z,6.07
2022-11-01T05:19:49.784Z,6.23
2022-11-01T05:22:17.035Z,6.17
2022-11-01T05:24:43.526Z,5.97
2022-11-01T05:27:09.829Z,6.00
2022-11-01T05:29:36.139Z,6.50
2022-11-01T05:32:02.484Z,6.50
2022-11-01T05:34:28.763Z,5.97
2022-11-01T05:36:55.283Z,6.20
2022-11-01T05:39:21.597Z,6.00
2022-11-01T05:41:47.883Z,6.37
2022-11-01T05:44:14.204Z,5.47
2022-11-01T05:46:40.492Z,5.90
2022-11-01T05:49:06.910Z,5.80
2022-11-01T05:51:33.223Z,5.73
2022-11-01T05:53:59.496Z,5.87
2022-11-01T05:56:25.776Z,6.50
2022-11-01T05:58:52.056Z,5.50
2022-11-01T06:01:18.595Z,5.50
2022-11-01T06:03:49.874Z,5.33
2022-11-01T06:06:16.566Z,5.60
2022-11-01T06:08:42.873Z,5.37
2022-11-01T06:11:09.754Z,4.93
2022-11-01T06:13:36.100Z,5.40
2022-11-01T06:16:05.201Z,4.70
2022-11-01T06:18:31.986Z,5.00
2022-11-01T06:20:59.148Z,5.40
2022-11-01T06:23:25.453Z,5.17
2022-11-01T06:25:59.366Z,5.00
2022-11-01T06:28:25.684Z,5.27
2022-11-01T06:30:52.039Z,4.87
2022-11-01T06:33:18.374Z,4.60
2022-11-01T06:35:44.669Z,4.60
2022-11-01T06:38:10.989Z,4.77
2022-11-01T06:40:37.605Z,4.30
2022-11-01T06:43:06.003Z,3.47
2022-11-01T06:45:33.044Z,3.40
2022-11-01T06:47:59.620Z,3.43
2022-11-01T06:50:26.184Z,3.83
2022-11-01T06:52:57.411Z,3.87
2022-11-01T06:55:24.603Z,3.50
2022-11-01T06:57:55.822Z,3.37
2022-11-01T07:00:22.512Z,3.60
2022-11-01T07:02:49.165Z,3.60
2022-11-01T07:05:15.613Z,3.00
2022-11-01T07:07:42.028Z,2.63
2022-11-01T07:10:09.268Z,2.27
2022-11-01T07:12:35.599Z,2.40
2022-11-01T07:15:01.895Z,2.20
2022-11-01T07:17:28.184Z,2.50
2022-11-01T07:19:54.464Z,1.90
2022-11-01T07:22:20.740Z,2.20
2022-11-01T07:24:47.067Z,2.00
2022-11-01T07:27:19.330Z,2.33
2022-11-01T07:29:46.963Z,2.70
2022-11-01T07:32:13.308Z,2.27
2022-11-01T07:34:39.608Z,1.83
2022-11-01T07:37:05.897Z,1.93
2022-11-01T07:39:32.216Z,1.97
2022-11-01T07:41:59.281Z,1.93
2022-11-01T07:44:25.623Z,2.57
2022-11-01T07:46:51.930Z,1.90
2022-11-01T07:49:18.527Z,2.07
2022-11-01T07:51:44.824Z,2.00
2022-11-01T07:54:11.400Z,2.03
2022-11-01T07:56:37.716Z,1.63
2022-11-01T07:59:04.247Z,1.80
2022-11-01T08:01:30.655Z,1.37
2022-11-01T08:03:57.027Z,1.80
2022-11-01T08:06:23.607Z,1.83
2022-11-01T08:08:50.013Z,1.40
2022-11-01T08:11:16.575Z,1.63
2022-11-01T08:13:42.901Z,1.90
2022-11-01T08:16:09.224Z,2.20
2022-11-01T08:18:35.532Z,1.60
2022-11-01T08:21:01.816Z,2.30
2022-11-01T08:23:28.173Z,2.27
2022-11-01T08:25:54.505Z,2.43
2022-11-01T08:28:21.142Z,2.57
2022-11-01T08:30:49.575Z,2.63
2022-11-01T08:33:16.309Z,2.33
2022-11-01T08:35:49.772Z,2.37
2022-11-01T08:38:17.134Z,2.23
2022-11-01T08:40:43.576Z,2.53
2022-11-01T08:43:10.048Z,2.53
2022-11-01T08:45:36.382Z,2.73
2022-11-01T08:48:05.147Z,2.87
2022-11-01T08:50:33.798Z,2.10
2022-11-01T08:53:07.752Z,2.00
2022-11-01T08:55:37.612Z,2.50
2022-11-01T08:58:05.724Z,2.37
2022-11-01T09:00:32.292Z,2.00
2022-11-01T09:02:58.891Z,2.03
2022-11-01T09:05:25.387Z,2.50
2022-11-01T09:07:59.690Z,2.27
2022-11-01T09:10:27.154Z,2.27
2022-11-01T09:12:53.630Z,2.13
2022-11-01T09:15:20.045Z,2.33
2022-11-01T09:17:46.468Z,2.20
2022-11-01T09:20:14.183Z,2.33
2022-11-01T09:22:40.994Z,2.53
2022-11-01T09:25:08.020Z,2.30
2022-11-01T09:27:34.308Z,2.80
2022-11-01T09:30:00.632Z,2.83
2022-11-01T09:32:30.036Z,2.50
2022-11-01T09:34:56.685Z,2.87
2022-11-01T09:37:23.493Z,3.00
2022-11-01T09:39:49.772Z,2.97
2022-11-01T09:42:24.348Z,2.60
2022-11-01T09:44:53.990Z,2.57
2022-11-01T09:47:23.766Z,2.17
2022-11-01T09:49:56.396Z,2.47
2022-11-01T09:52:24.875Z,2.00
2022-11-01T09:54:51.580Z,3.00
2022-11-01T09:57:26.483Z,3.00
2022-11-01T10:00:16.240Z,2.93
2022-11-01T10:03:00.980Z,2.60
2022-11-01T10:05:36.327Z,2.63
2022-11-01T10:08:11.471Z,2.30
2022-11-01T10:11:03.887Z,2.13
2022-11-01T10:13:46.895Z,2.47
2022-11-01T10:16:35.828Z,2.37
2022-11-01T10:19:14.656Z,2.40
2022-11-01T10:21:47.909Z,2.97
2022-11-01T10:24:24.495Z,2.90
2022-11-01T10:26:56.112Z,2.40
2022-11-01T10:29:37.103Z,2.47
2022-11-01T10:32:05.355Z,2.30
2022-11-01T10:34:39.312Z,2.57
2022-11-01T10:37:23.412Z,2.20
2022-11-01T10:40:18.700Z,2.60
2022-11-01T10:42:45.167Z,1.93
2022-11-01T10:45:16.510Z,2.53
2022-11-01T10:47:46.146Z,2.30
2022-11-01T10:50:12.448Z,2.20
2022-11-01T10:52:53.808Z,2.57
2022-11-01T10:55:42.178Z,2.77
2022-11-01T10:58:20.679Z,2.30
2022-11-01T11:00:48.110Z,2.30
2022-11-01T11:03:27.592Z,2.30
2022-11-01T11:05:56.260Z,2.60
2022-11-01T11:08:24.368Z,2.60
2022-11-01T11:10:51.181Z,1.90
2022-11-01T11:13:21.985Z,2.20
2022-11-01T11:16:00.468Z,2.47
2022-11-01T11:18:38.909Z,2.30
2022-11-01T11:21:08.651Z,2.47
2022-11-01T11:23:41.194Z,2.70
2022-11-01T11:26:19.597Z,2.20
2022-11-01T11:28:50.066Z,2.50
2022-11-01T11:31:28.497Z,1.93
2022-11-01T11:33:59.408Z,2.40
2022-11-01T11:36:38.195Z,2.80
2022-11-01T11:39:05.519Z,2.40
2022-11-01T11:41:36.782Z,2.30
2022-11-01T11:44:03.670Z,2.20
2022-11-01T11:46:30.074Z,2.63
2022-11-01T11:49:00.541Z,2.40
2022-11-01T11:51:33.562Z,2.50
2022-11-01T11:54:24.712Z,2.30
2022-11-01T11:57:08.656Z,2.50
2022-11-01T11:59:35.514Z,2.93
2022-11-01T12:02:04.578Z,2.83
2022-11-01T12:04:40.084Z,2.60
2022-11-01T12:07:11.216Z,2.40
2022-11-01T12:09:48.042Z,2.77
2022-11-01T12:12:22.292Z,2.80
2022-11-01T12:14:48.789Z,3.10
2022-11-01T12:17:24.274Z,2.87
2022-11-01T12:20:09.783Z,2.70
2022-11-01T12:22:39.232Z,3.00
2022-11-01T12:25:10.872Z,2.50
2022-11-01T12:27:37.748Z,2.80
2022-11-01T12:30:11.384Z,3.53
2022-11-01T12:32:49.505Z,2.70
2022-11-01T12:35:36.535Z,2.50
2022-11-01T12:38:33.795Z,3.33
2022-11-01T12:41:12.619Z,2.50
2022-11-01T12:43:53.638Z,2.67
2022-11-01T12:46:29.906Z,2.40
2022-11-01T12:49:26.481Z,2.90
2022-11-01T12:51:57.924Z,3.20
2022-11-01T12:54:39.788Z,2.90
2022-11-01T12:57:14.574Z,3.83
2022-11-01T12:59:42.821Z,2.97
2022-11-01T13:02:51.687Z,3.20
2022-11-01T13:05:26.997Z,3.17
2022-11-01T13:08:21.363Z,2.60
2022-11-01T13:10:50.963Z,3.00
2022-11-01T13:13:36.297Z,2.77
2022-11-01T13:16:19.155Z,2.80
2022-11-01T13:19:20.535Z,2.73
2022-11-01T13:21:58.889Z,2.80
2022-11-01T13:24:43.750Z,2.90
2022-11-01T13:27:18.982Z,3.00
2022-11-01T13:29:59.285Z,2.80
2022-11-01T13:32:47.630Z,2.70
2022-11-01T13:35:36.840Z,3.03
2022-11-01T13:38:21.094Z,3.33
2022-11-01T13:40:50.763Z,3.00
2022-11-01T13:43:22.087Z,3.03
2022-11-01T13:46:23.911Z,2.43
2022-11-01T13:49:11.906Z,2.93
2022-11-01T13:51:44.347Z,3.50
2022-11-01T13:54:25.784Z,2.77
2022-11-01T13:57:00.774Z,3.40
2022-11-01T13:59:37.680Z,3.10
2022-11-01T14:02:27.243Z,3.00
2022-11-01T14:04:58.975Z,3.40
2022-11-01T14:07:30.322Z,3.10
2022-11-01T14:09:56.658Z,3.10
2022-11-01T14:12:36.485Z,2.77
2022-11-01T14:15:13.378Z,3.20
2022-11-01T14:17:55.965Z,2.87
2022-11-01T14:20:25.392Z,3.00
2022-11-01T14:22:56.401Z,2.93
2022-11-01T14:25:22.722Z,2.83
2022-11-01T14:27:51.999Z,3.07
2022-11-01T14:30:23.516Z,2.73
2022-11-01T14:33:04.296Z,2.90
2022-11-01T14:35:36.599Z,3.33
2022-11-01T14:38:29.072Z,3.00
2022-11-01T14:40:59.800Z,3.87
2022-11-01T14:43:39.000Z,3.27
2022-11-01T14:46:24.307Z,2.80
2022-11-01T14:49:15.525Z,3.30
2022-11-01T14:51:50.298Z,3.17
2022-11-01T14:54:28.760Z,2.77
2022-11-01T14:56:57.567Z,2.87
2022-11-01T14:59:31.639Z,3.33
2022-11-01T15:02:03.292Z,3.20
2022-11-01T15:04:32.894Z,3.10
2022-11-01T15:07:00.537Z,3.27
2022-11-01T15:09:29.888Z,2.73
2022-11-01T15:12:06.169Z,2.93
2022-11-01T15:14:44.636Z,2.80
2022-11-01T15:17:28.794Z,3.30
2022-11-01T15:19:57.017Z,3.00
2022-11-01T15:22:28.264Z,3.40
2022-11-01T15:25:00.875Z,2.80
2022-11-01T15:27:35.836Z,2.57
2022-11-01T15:30:03.025Z,2.70
2022-11-01T15:32:34.904Z,3.10
2022-11-01T15:35:05.831Z,2.83
2022-11-01T15:37:33.388Z,3.40
2022-11-01T15:40:01.123Z,3.57
2022-11-01T15:42:32.038Z,2.70
2022-11-01T15:45:18.306Z,3.30
2022-11-01T15:47:45.809Z,3.17
2022-11-01T15:50:12.258Z,3.87
2022-11-01T15:52:38.956Z,3.03
2022-11-01T15:55:17.035Z,3.27
2022-11-01T15:57:57.314Z,3.67
2022-11-01T16:00:29.457Z,3.10
2022-11-01T16:03:06.925Z,3.23
2022-11-01T16:05:37.702Z,3.00
2022-11-01T16:08:09.082Z,3.37
2022-11-01T16:10:35.792Z,3.17
2022-11-01T16:13:05.058Z,2.67
2022-11-01T16:15:33.931Z,3.40
2022-11-01T16:18:12.957Z,3.47
2022-11-01T16:20:47.089Z,2.97
2022-11-01T16:23:28.366Z,3.53
2022-11-01T16:26:08.957Z,2.63
2022-11-01T16:28:44.835Z,2.90
2022-11-01T16:31:32.677Z,2.60
2022-11-01T16:33:59.068Z,3.60
2022-11-01T16:36:38.516Z,3.40
2022-11-01T16:39:33.350Z,2.70
2022-11-01T16:42:00.115Z,3.10
2022-11-01T16:44:26.877Z,3.10
2022-11-01T16:46:54.835Z,3.07
2022-11-01T16:49:29.525Z,2.93
2022-11-01T16:51:58.709Z,3.43
2022-11-01T16:54:26.066Z,3.30
2022-11-01T16:56:55.838Z,3.70
2022-11-01T16:59:43.459Z,4.20
2022-11-01T17:02:26.104Z,4.00
2022-11-01T17:04:56.759Z,3.97
2022-11-01T17:07:23.301Z,3.70
2022-11-01T17:09:49.718Z,4.03
2022-11-01T17:12:16.055Z,4.20
2022-11-01T17:14:43.019Z,4.03
2022-11-01T17:17:17.114Z,4.70
2022-11-01T17:19:46.962Z,4.20
2022-11-01T17:22:21.826Z,4.30
2022-11-01T17:24:48.333Z,3.63
2022-11-01T17:27:15.576Z,3.53
2022-11-01T17:29:42.956Z,3.90
2022-11-01T17:32:10.956Z,4.00
2022-11-01T17:34:37.800Z,5.17
2022-11-01T17:37:04.970Z,4.83
2022-11-01T17:39:31.380Z,4.53
2022-11-01T17:41:57.830Z,3.93
2022-11-01T17:44:24.104Z,4.47
2022-11-01T17:46:50.505Z,4.30
2022-11-01T17:49:21.200Z,4.53
2022-11-01T17:51:53.273Z,4.47
2022-11-01T17:54:21.430Z,4.40
2022-11-01T17:56:47.879Z,4.30
2022-11-01T17:59:14.206Z,5.73
2022-11-01T18:01:42.524Z,4.47
2022-11-01T18:04:09.006Z,5.00
2022-11-01T18:06:35.806Z,4.40
2022-11-01T18:09:05.385Z,4.40
2022-11-01T18:11:46.005Z,4.50
2022-11-01T18:14:15.355Z,4.60
2022-11-01T18:16:44.613Z,5.00
2022-11-01T18:19:49.480Z,4.60
2022-11-01T18:22:26.034Z,4.50
2022-11-01T18:24:58.896Z,5.30
2022-11-01T18:27:36.588Z,4.97
2022-11-01T18:30:17.694Z,4.63
2022-11-01T18:32:54.181Z,4.57
2022-11-01T18:35:25.063Z,5.03
2022-11-01T18:38:14.288Z,5.00
2022-11-01T18:41:20.049Z,4.47
2022-11-01T18:43:46.442Z,5.23
2022-11-01T18:46:26.707Z,4.40
2022-11-01T18:49:01.844Z,4.17
2022-11-01T18:51:31.133Z,3.90
2022-11-01T18:54:18.750Z,4.50
2022-11-01T18:56:49.414Z,6.80
2022-11-01T18:59:32.175Z,5.97
2022-11-01T19:02:10.628Z,4.47
2022-11-01T19:04:38.987Z,4.10
2022-11-01T19:07:20.088Z,4.50
2022-11-01T19:09:54.879Z,3.70
2022-11-01T19:12:28.179Z,4.07
2022-11-01T19:15:17.867Z,5.10
2022-11-01T19:17:44.901Z,5.07
2022-11-01T19:20:22.599Z,4.20
2022-11-01T19:22:49.006Z,3.80
2022-11-01T19:25:22.942Z,3.80
2022-11-01T19:27:52.702Z,4.83
2022-11-01T19:30:24.495Z,4.33
2022-11-01T19:32:53.870Z,4.30
2022-11-01T19:35:22.218Z,4.47
2022-11-01T19:37:50.788Z,3.90
2022-11-01T19:40:42.285Z,4.30
2022-11-01T19:43:13.581Z,4.10
2022-11-01T19:45:49.701Z,4.70
2022-11-01T19:48:20.508Z,4.30
2022-11-01T19:50:46.950Z,4.37
2022-11-01T19:53:31.080Z,3.80
2022-11-01T19:56:03.136Z,4.07
2022-11-01T19:58:35.829Z,4.37
2022-11-01T20:01:17.678Z,4.27
2022-11-01T20:03:46.476Z,4.57
2022-11-01T20:06:20.826Z,4.30
2022-11-01T20:08:50.755Z,3.73
2022-11-01T20:11:17.400Z,4.03
2022-11-01T20:13:43.772Z,3.80
2022-11-01T20:16:10.227Z,3.70
2022-11-01T20:18:36.540Z,4.50
2022-11-01T20:21:06.059Z,4.03
2022-11-01T20:23:33.793Z,4.00
2022-11-01T20:26:00.648Z,3.90
2022-11-01T20:28:27.337Z,4.10
2022-11-01T20:30:53.851Z,4.20
2022-11-01T20:33:20.151Z,3.80
2022-11-01T20:35:46.581Z,4.47
2022-11-01T20:38:13.007Z,4.13
2022-11-01T20:40:39.657Z,4.10
2022-11-01T20:43:06.938Z,3.60
2022-11-01T20:45:36.494Z,4.20
2022-11-01T20:48:03.825Z,4.57
2022-11-01T20:50:30.110Z,3.50
2022-11-01T20:52:56.428Z,3.90
2022-11-01T20:55:22.731Z,4.60
2022-11-01T20:57:49.667Z,3.80
2022-11-01T21:00:18.285Z,4.23
2022-11-01T21:02:45.906Z,4.50
2022-11-01T21:05:24.162Z,4.00
2022-11-01T21:07:56.967Z,3.90
2022-11-01T21:10:36.875Z,4.23
2022-11-01T21:13:21.771Z,4.37
2022-11-01T21:15:48.419Z,4.47
2022-11-01T21:18:14.700Z,4.83
2022-11-01T21:20:44.984Z,4.10
2022-11-01T21:23:25.900Z,4.23
2022-11-01T21:25:57.617Z,4.53
2022-11-01T21:28:36.603Z,3.87
2022-11-01T21:31:14.959Z,3.63
2022-11-01T21:34:00.032Z,4.80
2022-11-01T21:36:42.950Z,3.80
2022-11-01T21:39:28.804Z,3.60
2022-11-01T21:42:03.376Z,4.20
2022-11-01T21:44:40.045Z,4.27
2022-11-01T21:47:06.307Z,4.37
2022-11-01T21:49:33.082Z,4.10
2022-11-01T21:52:01.478Z,4.47
2022-11-01T21:54:30.163Z,4.90
2022-11-01T21:56:57.303Z,3.70
2022-11-01T21:59:24.538Z,4.00
2022-11-01T22:01:50.972Z,4.37
2022-11-01T22:04:17.858Z,4.17
2022-11-01T22:06:44.934Z,3.63
2022-11-01T22:09:12.326Z,4.07
2022-11-01T22:11:38.703Z,4.10
2022-11-01T22:14:05.727Z,4.00
2022-11-01T22:16:32.427Z,4.07
2022-11-01T22:18:59.271Z,4.33
2022-11-01T22:21:25.858Z,4.33
2022-11-01T22:23:52.490Z,4.10
2022-11-01T22:26:18.795Z,4.40
2022-11-01T22:28:45.106Z,4.30
2022-11-01T22:31:11.496Z,4.30
2022-11-01T22:33:38.150Z,4.80
2022-11-01T22:36:07.409Z,4.10
2022-11-01T22:38:38.091Z,3.80
2022-11-01T22:41:15.784Z,4.70
2022-11-01T22:43:45.999Z,4.27
2022-11-01T22:46:19.652Z,4.33
2022-11-01T22:48:47.615Z,4.60
2022-11-01T22:51:22.741Z,4.73
2022-11-01T22:53:50.923Z,4.63
2022-11-01T22:56:18.066Z,4.90
2022-11-01T22:58:44.386Z,4.73
2022-11-01T23:01:25.913Z,5.00
2022-11-01T23:03:57.112Z,4.43
2022-11-01T23:06:34.573Z,4.70
2022-11-01T23:09:15.582Z,5.10
2022-11-01T23:12:06.225Z,4.40
2022-11-01T23:14:45.288Z,4.37
2022-11-01T23:17:27.448Z,4.20
2022-11-01T23:19:57.991Z,4.80
2022-11-01T23:22:27.004Z,4.70
2022-11-01T23:24:53.751Z,5.10
2022-11-01T23:27:20.771Z,4.43
2022-11-01T23:29:52.644Z,4.30
2022-11-01T23:32:19.263Z,4.13
2022-11-01T23:34:46.787Z,4.27
2022-11-01T23:37:16.542Z,4.70
2022-11-01T23:39:43.070Z,4.60
2022-11-01T23:42:17.962Z,4.60
2022-11-01T23:44:45.419Z,4.30
2022-11-01T23:47:41.513Z,4.47
2022-11-01T23:50:22.693Z,4.20
2022-11-01T23:53:04.868Z,4.67
2022-11-01T23:55:35.435Z,4.00
2022-11-01T23:58:06.758Z,4.17
